Time;durP1;ratioP1;P1;durP2;ratioP2;P2;SDS_P1;SDS_P2;PMS_P1;PMS_P2;Temp;Humidity;BMP_temperature;BMP_pressure;BME280_temperature;BME280_humidity;BME280_pressure;Samples;Min_cycle;Max_cycle;Signal;HPM_P1;HPM_P2
2020/12/06 00:01:04;;;;;;;1999.90;999.90;;;1.50;99.90;;;;;;5024469;28;20452;-51
2020/12/06 00:03:30;;;;;;;1999.90;999.90;;;1.40;99.90;;;;;;5024700;28;20255;-50
2020/12/06 00:05:55;;;;;;;1999.90;999.90;;;1.40;99.90;;;;;;5023887;28;20493;-51
2020/12/06 00:08:21;;;;;;;1999.90;999.90;;;1.20;99.90;;;;;;5028988;28;20535;-50
2020/12/06 00:10:47;;;;;;;1999.90;999.90;;;1.00;99.90;;;;;;5028869;28;20237;-51
2020/12/06 00:13:13;;;;;;;1999.90;999.90;;;0.90;99.90;;;;;;5030151;28;20548;-50
2020/12/06 00:15:38;;;;;;;1999.90;999.90;;;0.70;99.90;;;;;;5026345;28;20283;-50
2020/12/06 00:18:04;;;;;;;1999.90;999.90;;;0.60;99.90;;;;;;5029876;28;20650;-51
2020/12/06 00:20:30;;;;;;;1999.90;999.90;;;0.60;99.90;;;;;;5029619;28;20185;-50
2020/12/06 00:22:57;;;;;;;1999.90;999.90;;;0.50;99.90;;;;;;5027847;28;20196;-50
2020/12/06 00:25:22;;;;;;;1999.90;999.90;;;0.50;99.90;;;;;;5031376;28;20422;-50
2020/12/06 00:27:48;;;;;;;1999.90;999.90;;;0.40;99.90;;;;;;5030188;28;21317;-50
2020/12/06 00:30:14;;;;;;;1999.90;999.90;;;0.40;99.90;;;;;;5030968;28;20695;-50
2020/12/06 00:32:40;;;;;;;1999.90;999.90;;;0.40;99.90;;;;;;5028066;28;20190;-50
2020/12/06 15:10:04;;;;;;;1999.90;999.90;;;0.80;99.90;;;;;;5101496;27;21118;-49
2020/12/06 15:12:30;;;;;;;1999.90;999.90;;;0.60;99.90;;;;;;5086679;28;20447;-49
2020/12/06 15:14:56;;;;;;;1999.90;999.90;;;0.50;99.90;;;;;;5092443;28;20692;-53
2020/12/06 15:17:22;;;;;;;1999.90;999.90;;;0.50;99.90;;;;;;5096069;28;20184;-49
2020/12/06 15:19:47;;;;;;;1999.90;999.90;;;0.40;99.90;;;;;;5084457;28;20870;-50
2020/12/06 15:22:13;;;;;;;1999.90;999.90;;;0.30;99.90;;;;;;5081967;28;20195;-49
2020/12/06 15:24:39;;;;;;;1999.90;999.90;;;0.30;99.90;;;;;;5087311;28;20560;-49
2020/12/06 15:27:05;;;;;;;1999.90;999.90;;;0.30;99.90;;;;;;5086940;28;20188;-51
2020/12/06 15:29:30;;;;;;;1999.90;999.90;;;0.20;99.90;;;;;;5089344;28;20229;-49
2020/12/06 15:31:56;;;;;;;1999.90;999.90;;;0.20;99.90;;;;;;5078566;28;20662;-50
2020/12/06 15:34:22;;;;;;;1999.90;999.90;;;0.20;99.90;;;;;;5085443;28;20189;-49
2020/12/06 15:36:48;;;;;;;1999.90;999.90;;;0.10;99.90;;;;;;5085699;28;20554;-48
2020/12/06 15:39:13;;;;;;;1999.90;999.90;;;0.10;99.90;;;;;;5085719;28;20550;-50
2020/12/06 15:41:39;;;;;;;1999.90;999.90;;;0.20;99.90;;;;;;5085185;28;20205;-49
2020/12/06 15:44:05;;;;;;;1999.90;999.90;;;0.20;99.90;;;;;;5085642;28;20423;-50
2020/12/06 15:46:31;;;;;;;1999.90;999.90;;;0.20;99.90;;;;;;5083166;28;20438;-51
2020/12/06 15:48:57;;;;;;;1999.90;999.90;;;0.20;99.90;;;;;;5086222;28;20292;-50
2020/12/06 15:51:23;;;;;;;1999.90;999.90;;;0.10;99.90;;;;;;5081932;28;20181;-50
2020/12/06 15:53:49;;;;;;;1999.90;999.90;;;0.10;99.90;;;;;;5088234;28;20189;-49
2020/12/06 15:56:18;;;;;;;1999.90;999.90;;;0.00;99.90;;;;;;5090418;28;20449;-50
2020/12/06 15:58:44;;;;;;;1999.90;999.90;;;0.00;99.90;;;;;;5086008;28;20478;-50
2020/12/06 16:01:10;;;;;;;1999.90;999.90;;;0.00;99.90;;;;;;5089822;28;20447;-50
2020/12/06 16:03:39;;;;;;;1999.90;999.90;;;0.00;99.90;;;;;;5081289;28;20449;-51
2020/12/06 16:06:08;;;;;;;1999.90;999.90;;;0.00;99.90;;;;;;5085621;28;20930;-51
2020/12/06 16:08:35;;;;;;;1999.90;999.90;;;0.00;99.90;;;;;;5090161;28;20489;-51
2020/12/06 16:11:02;;;;;;;1999.90;999.90;;;0.00;99.90;;;;;;5085181;28;20445;-51
2020/12/06 16:13:28;;;;;;;1999.90;999.90;;;0.00;99.90;;;;;;5090317;28;20451;-51
2020/12/06 16:15:54;;;;;;;1999.90;999.90;;;0.00;99.90;;;;;;5092180;28;20474;-50
2020/12/06 16:18:20;;;;;;;1999.90;999.90;;;0.10;99.90;;;;;;5087838;28;20320;-50
2020/12/06 16:20:47;;;;;;;1999.90;999.90;;;0.10;99.90;;;;;;5077239;28;20435;-51
2020/12/06 16:23:13;;;;;;;1999.90;999.90;;;0.20;99.90;;;;;;5074560;28;20535;-50
2020/12/06 16:25:39;;;;;;;1999.90;999.90;;;0.20;99.90;;;;;;5069487;28;20439;-50
2020/12/06 16:28:07;;;;;;;1999.90;999.90;;;0.20;99.90;;;;;;5073781;28;20209;-50
2020/12/06 16:30:32;;;;;;;1999.90;999.90;;;0.20;99.90;;;;;;5076369;28;20518;-51
2020/12/06 16:32:58;;;;;;;1999.90;999.90;;;0.30;99.90;;;;;;5076084;28;20613;-49
2020/12/06 16:35:24;;;;;;;1999.90;999.90;;;0.30;99.90;;;;;;5059116;28;20214;-49
2020/12/06 16:37:50;;;;;;;1999.90;999.90;;;0.40;99.90;;;;;;5060074;28;20269;-50
2020/12/06 16:40:15;;;;;;;1999.90;999.90;;;0.30;99.90;;;;;;5071082;28;20201;-49
2020/12/06 16:42:41;;;;;;;1999.90;999.90;;;0.30;99.90;;;;;;5069762;28;20952;-51
2020/12/06 16:45:08;;;;;;;1999.90;999.90;;;0.30;99.90;;;;;;5071644;28;20239;-50
2020/12/06 16:47:38;;;;;;;1999.90;999.90;;;0.30;99.90;;;;;;5071179;28;20269;-51
2020/12/06 16:50:06;;;;;;;1999.90;999.90;;;0.40;99.90;;;;;;5078857;28;20543;-51
2020/12/06 16:52:32;;;;;;;1999.90;999.90;;;0.40;99.90;;;;;;5065778;28;21063;-50
2020/12/06 16:54:59;;;;;;;1999.90;999.90;;;0.50;99.90;;;;;;5081555;28;20447;-52
2020/12/06 16:57:25;;;;;;;1999.90;999.90;;;0.50;99.90;;;;;;5064922;28;20794;-49
2020/12/06 16:59:51;;;;;;;1999.90;999.90;;;0.50;99.90;;;;;;5067752;28;20471;-50
2020/12/06 17:02:17;;;;;;;1999.90;999.90;;;0.50;99.90;;;;;;5069855;28;20429;-50
2020/12/06 17:04:43;;;;;;;1999.90;999.90;;;0.50;99.90;;;;;;5066751;28;20197;-50
2020/12/06 17:07:09;;;;;;;1999.90;999.90;;;0.40;99.90;;;;;;5061968;28;20417;-50
2020/12/06 17:09:35;;;;;;;1999.90;999.90;;;0.40;99.90;;;;;;5063087;28;20497;-49
2020/12/06 17:12:01;;;;;;;1999.90;999.90;;;0.30;99.90;;;;;;5074861;28;20443;-50
2020/12/06 17:14:27;;;;;;;1999.90;999.90;;;0.30;99.90;;;;;;5078222;28;20262;-49
2020/12/06 17:16:53;;;;;;;1999.90;999.90;;;0.30;99.90;;;;;;5067024;28;20214;-49
2020/12/06 17:19:19;;;;;;;1999.90;999.90;;;0.30;99.90;;;;;;5071350;28;20494;-50
2020/12/06 17:21:46;;;;;;;1999.90;999.90;;;0.30;99.90;;;;;;5069696;28;20801;-50
2020/12/06 17:24:11;;;;;;;1999.90;999.90;;;0.30;99.90;;;;;;5067396;28;20451;-50
2020/12/06 17:26:37;;;;;;;1999.90;999.90;;;0.30;99.90;;;;;;5070711;28;20447;-49
2020/12/06 17:29:03;;;;;;;1999.90;999.90;;;0.30;99.90;;;;;;5069785;28;20241;-49
2020/12/06 17:31:29;;;;;;;1999.90;999.90;;;0.20;99.90;;;;;;5067798;28;20189;-50
2020/12/06 17:33:54;;;;;;;1999.90;999.90;;;0.30;99.90;;;;;;5070371;28;20243;-50
2020/12/06 17:36:20;;;;;;;1999.90;999.90;;;0.40;99.90;;;;;;5072199;28;20453;-52
2020/12/06 17:38:46;;;;;;;1999.90;999.90;;;0.40;99.90;;;;;;5068714;28;20293;-49
2020/12/06 17:41:13;;;;;;;1999.90;999.90;;;0.40;99.90;;;;;;5076682;28;20185;-49
2020/12/06 17:43:39;;;;;;;1999.90;999.90;;;0.40;99.90;;;;;;5068034;28;20195;-51
2020/12/06 17:46:04;;;;;;;1999.90;999.90;;;0.50;99.90;;;;;;5074026;28;20872;-51
2020/12/06 17:48:30;;;;;;;1999.90;999.90;;;0.50;99.90;;;;;;5060880;28;20292;-50
2020/12/06 17:50:55;;;;;;;1999.90;999.90;;;0.50;99.90;;;;;;5071233;28;20208;-50
2020/12/06 17:53:22;;;;;;;1999.90;999.90;;;0.50;99.90;;;;;;5069396;28;20551;-51
2020/12/06 17:55:48;;;;;;;1999.90;999.90;;;0.50;99.90;;;;;;5070529;28;20181;-51
2020/12/06 17:58:14;;;;;;;1999.90;999.90;;;0.50;99.90;;;;;;5074281;28;21062;-49
2020/12/06 18:00:39;;;;;;;1999.90;999.90;;;0.50;99.90;;;;;;5074733;28;20449;-51
2020/12/06 18:03:05;;;;;;;1999.90;999.90;;;0.40;99.90;;;;;;5071984;28;20202;-54
2020/12/06 18:05:32;;;;;;;1999.90;999.90;;;0.40;99.90;;;;;;5065523;28;20189;-50
2020/12/06 18:07:57;;;;;;;1999.90;999.90;;;0.50;99.90;;;;;;5061308;28;20237;-53
2020/12/06 18:10:23;;;;;;;1999.90;999.90;;;0.50;99.90;;;;;;5061940;28;20481;-51
2020/12/06 18:12:49;;;;;;;1999.90;999.90;;;0.40;99.90;;;;;;5066591;28;20191;-50
2020/12/06 18:15:14;;;;;;;1999.90;999.90;;;0.50;99.90;;;;;;5066240;28;20185;-49
2020/12/06 18:17:40;;;;;;;1999.90;999.90;;;0.50;99.90;;;;;;5069166;28;20182;-50
2020/12/06 18:20:05;;;;;;;1999.90;999.90;;;0.50;99.90;;;;;;5074416;28;20689;-50
2020/12/06 18:22:31;;;;;;;1999.90;999.90;;;0.50;99.90;;;;;;5071971;28;20189;-50
2020/12/06 18:24:57;;;;;;;1999.90;999.90;;;0.60;99.90;;;;;;5068269;28;20850;-49
2020/12/06 18:27:22;;;;;;;1999.90;999.90;;;0.60;99.90;;;;;;5068300;28;20182;-50
2020/12/06 18:29:48;;;;;;;1999.90;999.90;;;0.60;99.90;;;;;;5067533;28;20211;-50
2020/12/06 18:32:13;;;;;;;1999.90;999.90;;;0.60;99.90;;;;;;5070632;28;20672;-51
2020/12/06 18:34:39;;;;;;;1999.90;999.90;;;0.60;99.90;;;;;;5062049;28;20799;-50
2020/12/06 18:37:05;;;;;;;1999.90;999.90;;;0.70;99.90;;;;;;5071642;28;20265;-51
2020/12/06 18:39:31;;;;;;;1999.90;999.90;;;0.90;99.90;;;;;;5067250;28;20487;-50
2020/12/06 18:41:56;;;;;;;1999.90;999.90;;;0.80;99.90;;;;;;5068967;28;21245;-50
2020/12/06 18:44:22;;;;;;;1999.90;999.90;;;0.80;99.90;;;;;;5069745;28;20183;-50
2020/12/06 18:46:48;;;;;;;1999.90;999.90;;;0.80;99.90;;;;;;5068779;28;20189;-50
2020/12/06 18:49:14;;;;;;;1999.90;999.90;;;0.80;99.90;;;;;;5067447;28;20227;-53
2020/12/06 18:51:43;;;;;;;1999.90;999.90;;;0.80;99.90;;;;;;5065424;28;20437;-50
2020/12/06 18:54:08;;;;;;;1999.90;999.90;;;0.80;99.90;;;;;;5070183;28;20179;-50
2020/12/06 18:56:34;;;;;;;1999.90;999.90;;;0.80;99.90;;;;;;5067888;28;20436;-52
2020/12/06 18:59:00;;;;;;;1999.90;999.90;;;0.80;99.90;;;;;;5068500;28;20686;-52
2020/12/06 19:01:25;;;;;;;1999.90;999.90;;;0.80;99.90;;;;;;5073269;28;20181;-50
2020/12/06 19:03:53;;;;;;;1999.90;999.90;;;0.90;99.90;;;;;;5068076;28;20348;-49
2020/12/06 19:06:19;;;;;;;1999.90;999.90;;;0.90;99.90;;;;;;5065702;28;20240;-52
2020/12/06 19:08:45;;;;;;;1999.90;999.90;;;1.00;99.90;;;;;;5063458;28;20480;-51
2020/12/06 19:11:11;;;;;;;1999.90;999.90;;;0.90;99.90;;;;;;5066027;28;20451;-49
2020/12/06 19:13:38;;;;;;;1999.90;999.90;;;0.90;99.90;;;;;;5069367;28;20212;-51
2020/12/06 19:16:04;;;;;;;1999.90;999.90;;;1.00;99.90;;;;;;5062777;28;20455;-50
2020/12/06 19:18:30;;;;;;;1999.90;999.90;;;1.10;99.90;;;;;;5062007;28;20476;-50
2020/12/06 19:21:00;;;;;;;1999.90;999.90;;;1.10;99.90;;;;;;5066876;28;20456;-49
2020/12/06 19:23:25;;;;;;;1999.90;999.90;;;1.10;99.90;;;;;;5091621;22;20231;-47
2020/12/06 19:25:51;;;;;;;1999.90;999.90;;;1.10;99.90;;;;;;5063056;28;20483;-51
2020/12/06 19:28:17;;;;;;;1999.90;999.90;;;1.20;99.90;;;;;;5069375;28;20744;-49
2020/12/06 19:30:42;;;;;;;1999.90;999.90;;;1.20;99.90;;;;;;5063498;28;20179;-48
2020/12/06 19:33:08;;;;;;;1999.90;999.90;;;1.20;99.90;;;;;;5076026;28;20662;-47
2020/12/06 19:35:34;;;;;;;1999.90;999.90;;;1.30;99.90;;;;;;5089314;28;20178;-47
2020/12/06 19:37:59;;;;;;;1999.90;999.90;;;1.30;99.90;;;;;;5087106;28;20199;-48
2020/12/06 19:40:25;;;;;;;1999.90;999.90;;;1.30;99.90;;;;;;5087506;28;20194;-49
2020/12/06 19:42:51;;;;;;;1999.90;999.90;;;1.30;99.90;;;;;;5090434;28;20209;-47
2020/12/06 19:45:17;;;;;;;1999.90;999.90;;;1.30;99.90;;;;;;5089109;28;20176;-48
2020/12/06 19:47:43;;;;;;;1999.90;999.90;;;1.30;99.90;;;;;;5089334;28;20179;-53
2020/12/06 19:50:09;;;;;;;1999.90;999.90;;;1.20;99.90;;;;;;5086270;28;20463;-47
2020/12/06 19:52:36;;;;;;;1999.90;999.90;;;1.10;99.90;;;;;;5088327;28;20452;-48
2020/12/06 19:55:03;;;;;;;1999.90;999.90;;;1.00;99.90;;;;;;5085728;28;20444;-48
2020/12/06 19:57:28;;;;;;;1999.90;999.90;;;0.90;99.90;;;;;;5090147;28;20808;-47
2020/12/06 19:59:54;;;;;;;1999.90;999.90;;;0.90;99.90;;;;;;5084602;28;20446;-47
2020/12/06 20:02:20;;;;;;;1999.90;999.90;;;0.90;99.90;;;;;;5092200;28;20207;-48
2020/12/06 20:04:46;;;;;;;1999.90;999.90;;;0.90;99.90;;;;;;5089255;28;20198;-47
2020/12/06 20:07:12;;;;;;;1999.90;999.90;;;0.90;99.90;;;;;;5086528;28;20475;-47
2020/12/06 20:09:39;;;;;;;1999.90;999.90;;;0.90;99.90;;;;;;5085295;28;20469;-48
2020/12/06 20:12:06;;;;;;;1999.90;999.90;;;1.00;99.90;;;;;;5085651;28;20435;-48
2020/12/06 20:14:32;;;;;;;1999.90;999.90;;;1.10;99.90;;;;;;5086176;28;20436;-49
2020/12/06 20:16:58;;;;;;;1999.90;999.90;;;1.10;99.90;;;;;;5092094;28;20455;-49
2020/12/06 20:19:28;;;;;;;1999.90;999.90;;;1.20;99.90;;;;;;5088409;28;20189;-47
2020/12/06 20:22:02;;;;;;;1999.90;999.90;;;1.30;99.90;;;;;;5089796;28;20440;-49
2020/12/06 20:24:29;;;;;;;1999.90;999.90;;;1.30;99.90;;;;;;5092239;28;20439;-50
2020/12/06 20:26:56;;;;;;;1999.90;999.90;;;1.50;99.90;;;;;;5088876;28;20449;-48
2020/12/06 20:29:25;;;;;;;1999.90;999.90;;;1.60;99.90;;;;;;5089507;28;20476;-48
2020/12/06 20:31:51;;;;;;;1999.90;999.90;;;1.60;99.90;;;;;;5091046;28;20472;-51
2020/12/06 20:34:17;;;;;;;1999.90;999.90;;;1.70;99.90;;;;;;5094502;28;21073;-45
2020/12/06 20:36:43;;;;;;;1999.90;999.90;;;1.80;99.90;;;;;;5090735;28;20528;-49
2020/12/06 20:39:09;;;;;;;1999.90;999.90;;;1.80;99.90;;;;;;5089061;28;20472;-50
2020/12/06 20:41:35;;;;;;;1999.90;999.90;;;1.90;99.90;;;;;;5085969;28;21850;-48
2020/12/06 20:44:01;;;;;;;1999.90;999.90;;;2.00;99.90;;;;;;5086266;28;20675;-48
2020/12/06 20:46:27;;;;;;;1999.90;999.90;;;2.10;99.90;;;;;;5085917;28;20426;-48
2020/12/06 20:48:53;;;;;;;1999.90;999.90;;;2.30;99.90;;;;;;5092237;28;20503;-48
2020/12/06 20:51:21;;;;;;;1999.90;999.90;;;2.50;99.90;;;;;;5090004;28;20458;-51
2020/12/06 20:53:47;;;;;;;1999.90;999.90;;;2.60;99.90;;;;;;5090339;28;20502;-47
2020/12/06 20:56:13;;;;;;;1999.90;999.90;;;2.70;99.90;;;;;;5087394;28;20425;-46
2020/12/06 20:58:39;;;;;;;1999.90;999.90;;;2.80;99.90;;;;;;5089293;28;20187;-46
2020/12/06 21:01:04;;;;;;;1999.90;999.90;;;3.00;99.90;;;;;;5086091;28;21025;-48
2020/12/06 21:03:30;;;;;;;1999.90;999.90;;;3.10;99.90;;;;;;5087538;28;20685;-46
2020/12/06 21:05:56;;;;;;;1999.90;999.90;;;3.20;99.90;;;;;;5085109;28;20189;-50
2020/12/06 21:08:22;;;;;;;1999.90;999.90;;;3.20;99.90;;;;;;5086783;28;20269;-47
2020/12/06 21:10:47;;;;;;;1999.90;999.90;;;3.30;99.90;;;;;;5090283;28;20183;-49
2020/12/06 21:13:13;;;;;;;1999.90;999.90;;;3.60;99.90;;;;;;5086083;28;20249;-47
2020/12/06 21:15:38;;;;;;;1999.90;999.90;;;3.70;99.90;;;;;;5088211;28;20177;-48
2020/12/06 21:18:04;;;;;;;1999.90;999.90;;;3.80;99.90;;;;;;5087435;28;20182;-49
2020/12/06 21:20:30;;;;;;;1999.90;999.90;;;4.00;99.90;;;;;;5089385;28;20184;-49
2020/12/06 21:22:55;;;;;;;1999.90;999.90;;;4.10;99.90;;;;;;5087512;28;20221;-49
2020/12/06 21:25:21;;;;;;;1999.90;999.90;;;4.70;99.90;;;;;;5088468;28;20218;-50
2020/12/06 21:27:47;;;;;;;1999.90;999.90;;;5.20;99.90;;;;;;5089265;28;20169;-48
2020/12/06 21:30:13;;;;;;;1999.90;999.90;;;5.50;99.90;;;;;;5086583;28;20212;-49
2020/12/06 21:32:39;;;;;;;1999.90;999.90;;;5.90;99.90;;;;;;5087306;28;20219;-49
2020/12/06 21:35:06;;;;;;;1999.90;999.90;;;6.20;99.90;;;;;;5087825;28;20869;-50
2020/12/06 21:37:32;;;;;;;1999.90;999.90;;;6.30;99.90;;;;;;5086201;28;20514;-49
2020/12/06 21:39:59;;;;;;;1999.90;999.90;;;6.60;99.90;;;;;;5087337;28;20439;-49
2020/12/06 21:42:25;;;;;;;1999.90;999.90;;;6.80;99.90;;;;;;5085862;28;20505;-48
2020/12/06 21:44:51;;;;;;;1999.90;999.90;;;7.00;99.90;;;;;;5088027;28;21243;-48
2020/12/06 21:47:17;;;;;;;1999.90;999.90;;;7.10;99.90;;;;;;5086795;28;20415;-48
2020/12/06 21:49:42;;;;;;;1999.90;999.90;;;7.30;99.90;;;;;;5085707;28;20209;-50
2020/12/06 21:52:08;;;;;;;1999.90;999.90;;;7.40;99.90;;;;;;5089059;28;20186;-47
2020/12/06 21:54:35;;;;;;;1999.90;999.90;;;7.40;99.90;;;;;;5089828;28;20171;-49
2020/12/06 21:57:00;;;;;;;1999.90;999.90;;;7.50;99.90;;;;;;5088574;28;20420;-50
2020/12/06 21:59:26;;;;;;;1999.90;999.90;;;7.60;99.90;;;;;;5091239;28;20546;-48
2020/12/06 22:01:52;;;;;;;1999.90;999.90;;;7.60;99.90;;;;;;5103907;28;20178;-49
2020/12/06 22:04:19;;;;;;;1999.90;999.90;;;7.60;99.90;;;;;;5095617;28;20181;-49
2020/12/06 22:06:47;;;;;;;1999.90;999.90;;;7.60;99.90;;;;;;5103100;28;20181;-49
2020/12/06 22:09:13;;;;;;;1999.90;999.90;;;7.60;99.90;;;;;;5103758;28;20465;-48
2020/12/06 22:11:39;;;;;;;1999.90;999.90;;;7.60;99.90;;;;;;5087720;28;20485;-48
2020/12/06 22:14:04;;;;;;;1999.90;999.90;;;7.60;99.90;;;;;;5087219;28;20460;-49
2020/12/06 22:16:30;;;;;;;1999.90;999.90;;;7.60;99.90;;;;;;5106453;28;20514;-48
2020/12/06 22:18:57;;;;;;;1999.90;999.90;;;7.70;99.90;;;;;;5096995;28;20185;-48
2020/12/06 22:21:26;;;;;;;1999.90;999.90;;;7.70;99.90;;;;;;5087133;28;20448;-48
2020/12/06 22:23:52;;;;;;;1999.90;999.90;;;7.80;99.90;;;;;;5095014;28;20523;-49
2020/12/06 22:26:18;;;;;;;1999.90;999.90;;;7.80;99.90;;;;;;5093367;28;20441;-50
2020/12/06 22:28:44;;;;;;;1999.90;999.90;;;7.70;99.90;;;;;;5093998;28;20564;-50
2020/12/06 22:31:13;;;;;;;1999.90;999.90;;;7.70;99.90;;;;;;5107295;28;20547;-49
2020/12/06 22:33:39;;;;;;;1999.90;999.90;;;7.80;99.90;;;;;;5094259;28;20232;-49
2020/12/06 22:36:05;;;;;;;1999.90;999.90;;;7.70;99.90;;;;;;5091858;28;20442;-49
2020/12/06 22:38:30;;;;;;;1999.90;999.90;;;7.70;99.90;;;;;;5090097;28;20656;-48
2020/12/06 22:40:57;;;;;;;1999.90;999.90;;;7.70;99.90;;;;;;5091805;28;20281;-50
2020/12/06 22:43:22;;;;;;;1999.90;999.90;;;7.70;99.90;;;;;;5091155;28;20207;-49
2020/12/06 22:45:48;;;;;;;1999.90;999.90;;;7.70;99.90;;;;;;5090779;28;20504;-49
2020/12/06 22:48:14;;;;;;;1999.90;999.90;;;7.70;99.90;;;;;;5090036;28;20197;-50
2020/12/06 22:50:39;;;;;;;1999.90;999.90;;;7.80;99.90;;;;;;5092079;28;20702;-49
2020/12/06 22:53:05;;;;;;;1999.90;999.90;;;7.80;99.90;;;;;;5090095;28;20211;-48
2020/12/06 22:55:30;;;;;;;1999.90;999.90;;;7.80;99.90;;;;;;5090452;28;20278;-48
2020/12/06 22:57:56;;;;;;;1999.90;999.90;;;7.80;99.90;;;;;;5089247;28;20206;-50
2020/12/06 23:00:22;;;;;;;1999.90;999.90;;;7.80;99.90;;;;;;5088333;28;20593;-49
2020/12/06 23:02:47;;;;;;;1999.90;999.90;;;7.80;99.90;;;;;;5092129;28;20622;-48
2020/12/06 23:05:13;;;;;;;1999.90;999.90;;;7.80;99.90;;;;;;5096167;28;20666;-49
2020/12/06 23:07:38;;;;;;;1999.90;999.90;;;7.80;99.90;;;;;;5091356;28;20694;-52
2020/12/06 23:10:05;;;;;;;1999.90;999.90;;;7.80;99.90;;;;;;5083053;28;20301;-51
2020/12/06 23:12:31;;;;;;;1999.90;999.90;;;7.90;99.90;;;;;;5090156;28;20205;-49
2020/12/06 23:14:56;;;;;;;1999.90;999.90;;;7.90;99.90;;;;;;5089273;28;20588;-48
2020/12/06 23:17:22;;;;;;;1999.90;999.90;;;7.90;99.90;;;;;;5086969;28;20971;-47
2020/12/06 23:19:47;;;;;;;1999.90;999.90;;;7.90;99.90;;;;;;5089452;28;20203;-47
